Time;durP1;ratioP1;P1;durP2;ratioP2;P2;SDS_P1;SDS_P2;PMS_P1;PMS_P2;Temp;Humidity;BMP_temperature;BMP_pressure;BME280_temperature;BME280_humidity;BME280_pressure;Samples;Min_cycle;Max_cycle;Signal;HPM_P1;HPM_P2
2022/02/16 00:00:23;;;;;;;11.45;1.65;;;;;;;3.41;60.43;100099.19;4998860;28;20112;-81
2022/02/16 00:02:48;;;;;;;7.68;2.05;;;;;;;3.52;60.32;100086.88;5014023;28;20070;-82
2022/02/16 00:05:16;;;;;;;8.55;2.00;;;;;;;3.58;59.73;100081.53;5031367;28;20069;-80
2022/02/16 00:07:43;;;;;;;15.18;2.50;;;;;;;3.45;60.59;100082.72;5016294;28;20045;-83
2022/02/16 00:10:12;;;;;;;7.20;2.30;;;;;;;3.43;60.77;100081.94;5012979;28;20102;-80
2022/02/16 00:12:39;;;;;;;5.70;2.13;;;;;;;3.64;60.06;100075.41;5014612;28;20072;-81
2022/02/16 00:15:06;;;;;;;17.00;2.20;;;;;;;3.65;59.81;100061.56;4996211;28;20030;-80
2022/02/16 00:17:32;;;;;;;8.32;2.17;;;;;;;4.07;58.81;100064.81;5016624;28;20052;-81
2022/02/16 00:19:58;;;;;;;11.20;1.92;;;;;;;3.67;59.96;100054.63;5020381;28;20060;-81
2022/02/16 00:22:24;;;;;;;11.50;2.53;;;;;;;3.78;59.55;100050.03;4999854;28;20045;-80
2022/02/16 00:24:49;;;;;;;11.27;3.22;;;;;;;3.71;59.70;100044.19;5016945;28;20038;-82
2022/02/16 00:27:15;;;;;;;7.85;1.92;;;;;;;3.57;60.18;100039.34;5000291;28;20416;-79
2022/02/16 00:29:41;;;;;;;8.85;1.65;;;;;;;3.50;60.57;100035.22;5003657;28;20033;-83
2022/02/16 00:32:06;;;;;;;5.15;2.08;;;;;;;3.69;59.63;100033.03;4998788;28;20045;-79
2022/02/16 00:34:32;;;;;;;15.00;1.95;;;;;;;3.76;59.78;100028.56;5019615;28;20025;-80
2022/02/16 00:36:58;;;;;;;5.40;1.77;;;;;;;3.53;59.87;100014.47;5005080;28;20026;-79
2022/02/16 00:39:23;;;;;;;12.63;1.60;;;;;;;3.75;59.58;100022.53;5019564;28;20040;-82
2022/02/16 00:41:49;;;;;;;12.25;2.63;;;;;;;3.40;60.23;100013.06;5023806;28;20048;-83
2022/02/16 00:44:15;;;;;;;14.35;2.33;;;;;;;3.56;59.74;100022.16;5003131;28;20037;-81
2022/02/16 00:46:40;;;;;;;9.80;2.70;;;;;;;3.56;59.34;100013.53;5017009;28;20427;-81
2022/02/16 00:49:06;;;;;;;12.25;2.33;;;;;;;3.75;59.25;100017.38;4994779;28;20596;-79
2022/02/16 00:51:31;;;;;;;7.85;3.10;;;;;;;3.92;58.56;100009.19;5021597;28;20037;-77
2022/02/16 00:53:57;;;;;;;10.63;2.80;;;;;;;3.74;59.18;100005.34;5002525;28;20038;-83
2022/02/16 00:56:29;;;;;;;;;;;;;;;3.56;59.91;100008.38;5007998;28;20073;-81
2022/02/16 00:58:55;;;;;;;7.88;2.70;;;;;;;3.72;59.66;100001.13;5032167;28;19921;-79
2022/02/16 01:01:21;;;;;;;14.20;3.60;;;;;;;3.84;59.30;99999.94;5005661;28;20388;-80
2022/02/16 01:03:50;;;;;;;12.40;2.75;;;;;;;3.83;59.40;99993.94;5004142;28;20141;-79
2022/02/16 01:06:15;;;;;;;13.57;3.38;;;;;;;3.63;60.36;99993.56;5014949;28;20038;-80
2022/02/16 01:08:41;;;;;;;12.82;3.33;;;;;;;3.47;60.92;99986.22;5011913;28;20041;-80
2022/02/16 01:11:06;;;;;;;8.70;3.13;;;;;;;3.88;59.20;99986.91;5001884;28;20087;-82
2022/02/16 01:13:32;;;;;;;14.43;4.35;;;;;;;3.92;59.07;99988.50;5017567;28;20575;-83
2022/02/16 01:15:58;;;;;;;7.20;2.60;;;;;;;3.71;59.92;99979.56;5023675;28;20497;-81
2022/02/16 01:18:25;;;;;;;13.30;4.10;;;;;;;3.92;59.13;99977.34;5019746;28;20038;-80
2022/02/16 01:20:54;;;;;;;9.98;3.63;;;;;;;3.32;61.48;99965.94;5013502;28;20092;-80
2022/02/16 01:23:19;;;;;;;7.90;2.63;;;;;;;4.04;59.28;99965.81;5014237;28;20041;-80
2022/02/16 01:25:46;;;;;;;13.75;2.75;;;;;;;4.02;59.11;99971.00;5001024;28;20061;-80
2022/02/16 01:28:30;;;;;;;10.90;3.50;;;;;;;3.99;59.06;99966.78;5013897;28;20052;-79
2022/02/16 01:30:56;;;;;;;9.48;3.13;;;;;;;3.94;59.09;99962.59;4998383;28;20037;-81
2022/02/16 01:33:28;;;;;;;11.23;3.92;;;;;;;3.84;59.89;99969.75;5014045;28;20052;-81
2022/02/16 01:35:53;;;;;;;12.05;4.20;;;;;;;3.66;59.89;99954.75;5000886;28;20064;-80
2022/02/16 01:38:20;;;;;;;6.72;2.65;;;;;;;4.01;59.04;99944.31;4995314;28;20041;-79
2022/02/16 01:40:54;;;;;;;5.28;3.13;;;;;;;4.21;58.91;99951.50;5017092;28;20479;-80
2022/02/16 01:43:20;;;;;;;17.92;3.58;;;;;;;3.94;59.55;99940.19;5011614;28;20102;-80
2022/02/16 01:45:48;;;;;;;7.50;4.07;;;;;;;3.80;60.05;99931.94;5017970;28;20037;-82
2022/02/16 01:48:20;;;;;;;16.05;3.65;;;;;;;3.98;59.41;99923.72;4999221;28;20065;-80
2022/02/16 01:50:46;;;;;;;8.60;3.47;;;;;;;3.72;60.47;99911.50;5001078;28;20037;-79
2022/02/16 01:53:14;;;;;;;14.90;4.78;;;;;;;3.64;60.77;99904.84;5013543;28;20033;-77
2022/02/16 01:55:45;;;;;;;14.40;4.45;;;;;;;3.98;59.25;99908.22;5014351;28;20458;-81
2022/02/16 01:58:11;;;;;;;20.73;5.10;;;;;;;3.88;59.49;99901.59;5000829;28;20042;-80
2022/02/16 02:01:01;;;;;;;11.93;4.25;;;;;;;3.73;59.99;99895.09;5016203;28;20041;-81
2022/02/16 02:03:28;;;;;;;16.02;5.47;;;;;;;3.62;60.76;99886.78;5015066;28;20084;-79
2022/02/16 02:06:00;;;;;;;16.08;4.80;;;;;;;3.71;60.41;99885.69;4996915;28;20041;-82
2022/02/16 02:08:27;;;;;;;23.25;5.43;;;;;;;3.67;60.26;99878.91;5010338;28;20117;-79
2022/02/16 02:10:57;;;;;;;10.40;4.38;;;;;;;3.79;60.00;99879.41;5003994;28;20025;-81
2022/02/16 02:13:24;;;;;;;16.70;5.72;;;;;;;3.93;59.70;99884.19;5009754;28;20056;-82
2022/02/16 02:16:12;;;;;;;14.00;4.57;;;;;;;3.79;60.17;99873.41;5004388;28;20034;-80
2022/02/16 02:18:41;;;;;;;12.73;4.55;;;;;;;3.77;60.40;99867.44;4996533;28;20502;-81
2022/02/16 02:21:07;;;;;;;15.50;4.97;;;;;;;3.80;60.17;99864.75;4998963;28;20527;-81
2022/02/16 02:23:33;;;;;;;10.85;5.70;;;;;;;3.91;60.47;99857.53;5017958;28;20041;-81
2022/02/16 02:25:58;;;;;;;18.25;5.85;;;;;;;3.95;59.79;99851.38;5011111;28;20037;-78
2022/02/16 02:28:25;;;;;;;8.85;5.15;;;;;;;4.04;59.77;99854.63;5013380;28;20044;-82
2022/02/16 02:30:55;;;;;;;12.05;5.35;;;;;;;4.14;59.33;99853.44;5013534;28;20028;-81
2022/02/16 02:33:23;;;;;;;16.95;5.57;;;;;;;3.97;59.73;99849.63;4999732;28;20077;-80
2022/02/16 02:35:51;;;;;;;12.20;5.00;;;;;;;4.10;59.42;99839.75;5013946;28;21361;-81
2022/02/16 02:38:17;;;;;;;10.40;5.05;;;;;;;4.16;59.21;99838.72;5013517;28;20504;-80
2022/02/16 02:40:43;;;;;;;16.00;5.35;;;;;;;4.27;58.64;99839.25;5011371;28;20098;-81
2022/02/16 02:43:09;;;;;;;8.93;3.92;;;;;;;4.01;59.24;99838.28;5013897;28;20096;-80
2022/02/16 02:45:42;;;;;;;16.73;4.07;;;;;;;3.88;59.77;99836.13;5019799;28;20037;-80
2022/02/16 02:48:08;;;;;;;16.35;4.65;;;;;;;3.84;60.17;99829.34;5014126;28;20038;-81
2022/02/16 02:50:33;;;;;;;11.25;4.38;;;;;;;3.31;61.69;99830.75;5011912;28;20036;-77
2022/02/16 02:52:59;;;;;;;14.98;5.65;;;;;;;4.00;59.61;99834.00;5016531;28;20637;-79
2022/02/16 02:55:26;;;;;;;8.07;3.38;;;;;;;4.30;58.71;99827.97;5002155;28;20034;-81
2022/02/16 02:57:52;;;;;;;11.70;4.47;;;;;;;4.17;58.42;99822.31;4996772;28;20056;-80
2022/02/16 03:00:18;;;;;;;9.25;4.65;;;;;;;4.32;58.54;99824.44;5013946;28;20057;-80
2022/02/16 03:02:48;;;;;;;15.10;4.93;;;;;;;4.37;58.48;99819.13;5009181;28;20061;-81
2022/02/16 03:05:13;;;;;;;14.85;4.65;;;;;;;4.41;58.28;99819.00;5014219;28;20041;-83
2022/02/16 03:07:40;;;;;;;13.32;4.13;;;;;;;4.07;59.30;99813.97;4995854;28;20255;-81
2022/02/16 03:10:06;;;;;;;12.68;6.50;;;;;;;3.74;60.55;99823.59;5009693;28;20067;-82
2022/02/16 03:12:31;;;;;;;15.55;4.88;;;;;;;3.94;59.94;99804.88;5014363;28;20471;-79
2022/02/16 03:14:57;;;;;;;20.90;4.28;;;;;;;3.99;59.86;99811.63;4996350;28;20068;-80
2022/02/16 03:17:27;;;;;;;19.38;5.07;;;;;;;4.15;59.59;99798.25;4997076;28;20045;-78
2022/02/16 03:19:53;;;;;;;15.07;5.03;;;;;;;4.25;59.55;99789.28;5000321;28;20033;-79
2022/02/16 03:22:20;;;;;;;15.10;5.15;;;;;;;4.38;58.62;99788.00;5000392;28;20628;-79
2022/02/16 03:24:46;;;;;;;13.35;4.82;;;;;;;3.97;59.67;99779.81;4998576;28;20641;-79
2022/02/16 03:27:12;;;;;;;10.07;4.38;;;;;;;4.16;59.16;99771.47;5014895;28;20041;-81
2022/02/16 03:29:58;;;;;;;13.10;5.25;;;;;;;4.06;60.25;99762.34;5015913;28;20092;-81
2022/02/16 03:32:24;;;;;;;13.05;4.10;;;;;;;3.96;60.41;99761.75;5014132;28;20059;-80
2022/02/16 03:34:50;;;;;;;17.30;5.00;;;;;;;3.96;60.77;99762.63;5017039;28;20571;-78
2022/02/16 03:37:15;;;;;;;9.88;3.40;;;;;;;4.29;59.74;99762.44;5015947;28;20041;-80
2022/02/16 03:39:41;;;;;;;7.10;3.28;;;;;;;4.12;60.18;99756.94;4993792;28;20310;-81
2022/02/16 03:42:08;;;;;;;12.23;3.80;;;;;;;4.33;59.41;99758.88;5008681;28;20076;-79
2022/02/16 03:44:34;;;;;;;13.18;3.15;;;;;;;4.15;59.54;99751.69;5024695;28;20380;-82
2022/02/16 03:47:02;;;;;;;15.40;3.97;;;;;;;4.19;59.39;99748.13;5014242;28;20053;-81
2022/02/16 03:49:28;;;;;;;7.18;3.63;;;;;;;4.61;57.99;99739.88;5016809;28;20033;-81
2022/02/16 03:51:57;;;;;;;7.22;3.03;;;;;;;4.53;58.45;99741.88;4999993;28;20120;-82
2022/02/16 03:54:23;;;;;;;8.80;3.72;;;;;;;4.60;58.33;99733.84;5029589;28;20088;-82
2022/02/16 03:56:49;;;;;;;7.53;3.45;;;;;;;4.52;58.40;99734.97;5020246;28;20410;-80
2022/02/16 03:59:14;;;;;;;14.52;4.05;;;;;;;4.41;58.72;99722.41;5002028;28;20038;-81
2022/02/16 04:02:01;;;;;;;13.10;4.65;;;;;;;4.69;57.95;99721.50;5015938;28;20090;-80
2022/02/16 04:04:28;;;;;;;12.70;4.32;;;;;;;4.77;57.39;99719.50;5030858;28;20443;-81
2022/02/16 04:06:54;;;;;;;13.20;3.92;;;;;;;4.59;57.78;99715.78;5011750;28;20040;-80
2022/02/16 04:09:19;;;;;;;12.20;3.42;;;;;;;4.77;57.83;99711.72;5032382;28;20041;-78
2022/02/16 04:11:45;;;;;;;12.75;3.83;;;;;;;4.88;57.37;99695.81;5028377;28;20037;-79
2022/02/16 04:14:11;;;;;;;11.95;3.95;;;;;;;4.83;57.50;99689.06;5014101;28;20021;-77
2022/02/16 04:16:36;;;;;;;7.40;3.42;;;;;;;4.89;57.59;99687.19;5015706;28;20029;-80
2022/02/16 04:19:02;;;;;;;13.85;4.30;;;;;;;4.83;57.74;99667.47;5027833;28;20152;-80
2022/02/16 04:21:28;;;;;;;14.45;4.28;;;;;;;4.84;57.59;99659.66;5041439;28;20099;-79
2022/02/16 04:23:54;;;;;;;12.93;4.13;;;;;;;4.83;57.70;99652.81;5022853;28;20036;-79
2022/02/16 04:26:19;;;;;;;14.48;5.05;;;;;;;4.60;58.38;99640.66;5012296;28;20213;-77
2022/02/16 04:28:49;;;;;;;13.88;4.43;;;;;;;4.58;58.80;99636.44;5025803;28;20038;-78
2022/02/16 04:31:16;;;;;;;12.15;5.75;;;;;;;4.72;58.14;99626.47;5024965;28;20706;-77
2022/02/16 04:33:42;;;;;;;14.27;5.13;;;;;;;4.72;58.59;99620.41;5025209;28;20074;-78
2022/02/16 04:36:08;;;;;;;11.70;4.70;;;;;;;4.41;59.72;99608.59;5018299;28;20041;-78
2022/02/16 04:38:34;;;;;;;11.30;5.45;;;;;;;4.60;58.82;99595.84;5005450;28;20060;-78
2022/02/16 04:41:00;;;;;;;15.27;5.30;;;;;;;4.73;58.29;99586.72;5018335;28;20088;-77
2022/02/16 04:43:25;;;;;;;18.05;7.30;;;;;;;4.77;58.47;99585.72;5022391;28;20045;-79
2022/02/16 04:45:51;;;;;;;14.07;5.28;;;;;;;4.84;58.02;99578.56;5005287;28;20036;-79
2022/02/16 04:48:17;;;;;;;14.25;7.72;;;;;;;4.76;58.79;99567.66;5018206;28;20050;-79
2022/02/16 04:50:43;;;;;;;13.07;6.32;;;;;;;4.80;58.48;99556.28;5010050;28;20093;-80
2022/02/16 04:53:09;;;;;;;16.55;8.13;;;;;;;4.55;59.28;99554.59;5017695;28;20049;-76
2022/02/16 04:55:36;;;;;;;20.42;7.07;;;;;;;4.41;59.81;99547.31;5023055;28;20026;-81
2022/02/16 04:58:09;;;;;;;14.25;7.10;;;;;;;4.47;60.20;99543.66;5018181;28;20049;-79
2022/02/16 05:00:35;;;;;;;14.07;7.15;;;;;;;4.56;59.68;99540.75;5000202;28;20029;-79
2022/02/16 05:03:11;;;;;;;15.48;7.28;;;;;;;4.58;59.67;99532.94;5003567;28;20392;-80
2022/02/16 05:05:37;;;;;;;20.15;8.70;;;;;;;4.71;59.31;99529.00;5016187;28;20035;-81
2022/02/16 05:08:03;;;;;;;16.80;8.30;;;;;;;4.62;59.77;99524.16;5035274;28;20053;-79
2022/02/16 05:10:29;;;;;;;20.30;8.70;;;;;;;4.56;59.66;99520.03;4999622;28;20044;-80
2022/02/16 05:12:57;;;;;;;15.02;8.00;;;;;;;4.61;59.70;99522.47;4998367;28;20048;-80
2022/02/16 05:15:22;;;;;;;17.33;9.18;;;;;;;4.40;61.01;99524.94;5005767;28;20316;-79
2022/02/16 05:17:48;;;;;;;17.73;9.13;;;;;;;4.43;60.64;99513.63;5000749;28;20079;-80
2022/02/16 05:20:33;;;;;;;14.35;8.40;;;;;;;4.73;60.04;99508.25;5015622;28;20030;-79
2022/02/16 05:23:02;;;;;;;19.33;9.30;;;;;;;4.89;59.20;99500.75;5027939;28;20052;-80
2022/02/16 05:25:28;;;;;;;19.40;9.82;;;;;;;4.72;59.78;99497.03;5017639;28;20531;-81
2022/02/16 05:27:54;;;;;;;18.73;9.02;;;;;;;4.60;60.64;99505.25;5027780;28;20124;-80
2022/02/16 05:30:20;;;;;;;16.45;8.55;;;;;;;4.87;59.79;99487.00;5017981;28;20120;-82
2022/02/16 05:32:45;;;;;;;17.63;9.27;;;;;;;4.87;59.97;99481.81;4997699;28;20052;-79
2022/02/16 05:35:12;;;;;;;15.75;9.63;;;;;;;4.86;60.28;99474.97;5002073;28;20052;-78
2022/02/16 05:37:39;;;;;;;18.88;9.15;;;;;;;4.96;59.88;99460.78;5003982;28;20041;-81
2022/02/16 05:40:06;;;;;;;17.17;8.98;;;;;;;4.67;60.61;99451.53;5015857;28;20086;-81
2022/02/16 05:42:35;;;;;;;18.55;8.57;;;;;;;4.84;60.40;99441.38;5018491;28;20041;-82
2022/02/16 05:45:01;;;;;;;19.33;9.90;;;;;;;4.68;61.44;99435.94;4997844;28;20639;-82
2022/02/16 05:47:27;;;;;;;13.23;7.63;;;;;;;4.79;61.18;99423.44;5001678;28;20538;-79
2022/02/16 05:49:53;;;;;;;16.15;8.27;;;;;;;4.94;60.50;99410.78;5004225;28;20064;-80
2022/02/16 05:52:19;;;;;;;17.52;8.18;;;;;;;4.56;62.15;99410.50;5000238;28;20075;-81
2022/02/16 05:54:44;;;;;;;14.35;7.97;;;;;;;4.54;62.29;99402.84;4997289;28;20027;-81
2022/02/16 05:57:11;;;;;;;16.73;7.22;;;;;;;4.84;61.43;99387.84;4988837;28;20041;-81
2022/02/16 05:59:39;;;;;;;14.20;7.70;;;;;;;4.64;62.08;99382.59;5006347;28;20036;-79
2022/02/16 06:02:06;;;;;;;15.20;7.45;;;;;;;4.90;61.60;99375.56;4989724;28;20045;-81
2022/02/16 06:04:33;;;;;;;11.32;6.60;;;;;;;4.66;62.39;99380.81;4998128;28;20030;-79
2022/02/16 06:07:00;;;;;;;12.10;6.47;;;;;;;4.53;62.65;99370.09;5008408;28;20498;-81
2022/02/16 06:09:27;;;;;;;10.20;5.55;;;;;;;4.15;64.41;99364.63;5005019;28;20052;-81
2022/02/16 06:11:52;;;;;;;14.05;6.43;;;;;;;4.50;63.02;99353.81;5006135;28;20412;-80
2022/02/16 06:14:21;;;;;;;13.23;6.63;;;;;;;4.62;62.29;99348.19;4994683;28;20511;-78
2022/02/16 06:16:55;;;;;;;9.02;5.32;;;;;;;5.11;61.10;99335.03;5016475;28;20022;-80
2022/02/16 06:19:21;;;;;;;10.68;5.85;;;;;;;5.02;61.26;99323.28;4998153;28;20032;-79
2022/02/16 06:21:47;;;;;;;9.77;5.25;;;;;;;4.76;61.93;99314.81;5004896;28;20042;-78
2022/02/16 06:24:14;;;;;;;12.32;4.45;;;;;;;4.95;61.55;99303.75;5010964;28;20021;-79
2022/02/16 06:26:39;;;;;;;7.00;4.18;;;;;;;4.37;63.30;99294.81;5010589;28;20378;-79
2022/02/16 06:29:08;;;;;;;7.95;4.25;;;;;;;5.00;61.29;99288.84;5000971;28;20037;-82
2022/02/16 06:31:49;;;;;;;7.53;4.30;;;;;;;4.76;62.34;99278.56;5001059;28;20115;-81
2022/02/16 06:34:15;;;;;;;6.38;3.90;;;;;;;3.92;65.27;99277.59;4996085;28;20116;-79
2022/02/16 06:36:41;;;;;;;13.05;4.22;;;;;;;4.71;62.70;99254.63;5013813;28;20060;-83
2022/02/16 06:39:07;;;;;;;6.13;3.40;;;;;;;4.33;63.95;99259.63;5010234;28;20086;-79
2022/02/16 06:41:33;;;;;;;9.68;3.75;;;;;;;4.48;63.73;99247.00;5012119;28;20452;-81
2022/02/16 06:43:59;;;;;;;6.88;3.45;;;;;;;4.58;63.48;99237.94;5017000;28;20054;-81
2022/02/16 06:46:24;;;;;;;6.43;3.88;;;;;;;4.62;63.51;99235.16;5015796;28;20124;-81
2022/02/16 06:48:51;;;;;;;5.65;3.17;;;;;;;4.93;61.71;99239.06;5016706;28;20053;-81
2022/02/16 06:51:17;;;;;;;6.05;3.53;;;;;;;4.64;62.99;99224.75;4992949;28;20025;-82
2022/02/16 06:53:44;;;;;;;5.82;3.17;;;;;;;4.74;63.01;99213.09;5003513;28;20034;-81
2022/02/16 06:56:10;;;;;;;5.47;3.05;;;;;;;4.86;62.64;99216.09;5002917;28;20026;-79
2022/02/16 06:58:54;;;;;;;7.13;2.97;;;;;;;4.96;62.55;99212.22;5025619;28;20048;-77
2022/02/16 07:01:20;;;;;;;4.35;3.10;;;;;;;4.89;62.70;99201.28;5012764;28;20033;-81
2022/02/16 07:03:46;;;;;;;7.50;3.72;;;;;;;4.86;62.40;99196.22;5015147;28;20459;-83
2022/02/16 07:06:18;;;;;;;5.25;3.20;;;;;;;5.16;61.85;99180.25;5004204;28;20037;-82
2022/02/16 07:08:44;;;;;;;6.57;3.08;;;;;;;5.30;61.64;99166.69;5000974;28;20389;-81
2022/02/16 07:11:10;;;;;;;5.90;2.95;;;;;;;5.17;61.93;99164.66;5027525;28;20038;-83
2022/02/16 07:13:35;;;;;;;6.85;3.65;;;;;;;4.62;63.80;99156.69;5017767;28;20049;-81
2022/02/16 07:16:01;;;;;;;6.50;3.55;;;;;;;5.17;62.24;99153.47;5006269;28;20032;-82
2022/02/16 07:18:33;;;;;;;5.55;3.20;;;;;;;4.86;63.31;99154.78;4994054;28;20673;-82
2022/02/16 07:21:11;;;;;;;7.82;3.70;;;;;;;4.58;64.29;99144.78;5008528;28;20835;-83
2022/02/16 07:23:37;;;;;;;8.15;4.03;;;;;;;5.07;63.22;99134.91;4998464;28;20061;-82
2022/02/16 07:26:10;;;;;;;6.30;3.50;;;;;;;4.75;63.92;99137.13;5003923;28;20029;-81
2022/02/16 07:28:36;;;;;;;7.18;4.43;;;;;;;4.74;63.84;99109.56;4992777;28;20033;-80
2022/02/16 07:31:02;;;;;;;7.90;4.07;;;;;;;4.93;63.92;99114.81;5004502;28;20119;-81
2022/02/16 07:33:28;;;;;;;7.95;3.53;;;;;;;4.30;66.13;99101.97;5019568;28;20049;-80
2022/02/16 07:35:54;;;;;;;7.68;4.35;;;;;;;4.75;64.10;99087.13;5014773;28;20038;-79
2022/02/16 07:38:20;;;;;;;6.38;3.80;;;;;;;5.08;63.52;99065.81;5001773;28;20037;-80
2022/02/16 07:40:47;;;;;;;7.05;4.20;;;;;;;5.21;63.25;99062.59;5016431;28;20037;-80
2022/02/16 07:43:17;;;;;;;6.18;3.53;;;;;;;5.14;62.79;99062.94;4994633;28;20116;-81
2022/02/16 07:46:03;;;;;;;5.97;3.38;;;;;;;4.69;64.35;99046.81;5016980;28;20044;-81
2022/02/16 07:48:32;;;;;;;5.50;3.65;;;;;;;5.01;63.80;99044.53;5014123;28;20046;-78
2022/02/16 07:51:06;;;;;;;4.45;3.40;;;;;;;5.01;64.19;99029.00;5017448;28;20079;-82
2022/02/16 07:53:50;;;;;;;3.90;2.85;;;;;;;5.22;63.39;99022.00;5012367;28;20407;-80
2022/02/16 07:56:16;;;;;;;5.18;2.97;;;;;;;4.90;64.39;99016.56;5001926;28;20033;-82
2022/02/16 07:58:41;;;;;;;4.07;2.72;;;;;;;5.29;63.58;99007.00;5018187;28;20072;-81
2022/02/16 08:01:07;;;;;;;4.07;2.13;;;;;;;5.41;62.80;98993.44;5003137;28;20092;-82
2022/02/16 08:03:33;;;;;;;3.00;2.03;;;;;;;4.74;65.11;98998.25;5027884;28;20050;-82
2022/02/16 08:06:03;;;;;;;2.63;1.63;;;;;;;4.74;65.12;98994.84;5001998;28;20057;-84
2022/02/16 08:08:31;;;;;;;2.60;1.95;;;;;;;5.03;64.68;98991.78;4999879;28;20068;-80
2022/02/16 08:10:57;;;;;;;3.22;2.05;;;;;;;4.73;65.32;98968.13;5019021;28;20028;-82
2022/02/16 08:13:23;;;;;;;4.15;1.88;;;;;;;4.68;65.62;98970.09;5015309;28;20037;-81
2022/02/16 08:16:02;;;;;;;3.38;1.70;;;;;;;4.89;65.18;98963.09;5013786;28;20040;-80
2022/02/16 08:18:28;;;;;;;3.25;1.83;;;;;;;4.81;65.88;98960.00;5000217;28;20116;-83
2022/02/16 08:20:54;;;;;;;2.65;1.33;;;;;;;5.18;64.48;98948.78;5012850;28;20030;-82
2022/02/16 08:23:24;;;;;;;3.08;1.98;;;;;;;5.10;64.92;98955.22;5005313;28;20041;-83
2022/02/16 08:25:51;;;;;;;6.75;2.20;;;;;;;4.60;66.97;98954.06;5014067;28;20033;-77
2022/02/16 08:28:18;;;;;;;2.78;1.30;;;;;;;4.88;66.13;98955.41;5004579;28;20120;-80
2022/02/16 08:31:02;;;;;;;2.47;1.60;;;;;;;4.52;67.15;98948.41;5008042;28;20477;-80
2022/02/16 08:33:47;;;;;;;2.13;0.85;;;;;;;5.08;65.55;98947.56;4999838;28;20069;-78
2022/02/16 08:36:14;;;;;;;3.42;1.20;;;;;;;4.78;66.28;98935.09;4992550;28;20522;-79
2022/02/16 08:38:41;;;;;;;2.58;1.13;;;;;;;4.97;65.96;98918.75;5016533;28;20042;-79
2022/02/16 08:41:08;;;;;;;4.97;0.80;;;;;;;4.89;66.25;98926.88;4994956;28;20068;-78
2022/02/16 08:43:34;;;;;;;2.00;0.98;;;;;;;4.94;66.22;98924.88;5010317;28;20057;-78
2022/02/16 08:45:59;;;;;;;2.25;1.25;;;;;;;5.31;65.36;98923.13;5011176;28;20030;-76
2022/02/16 08:48:27;;;;;;;1.90;0.80;;;;;;;4.74;67.38;98910.25;4996109;28;20777;-80
2022/02/16 08:50:54;;;;;;;2.20;0.80;;;;;;;5.08;66.12;98910.44;5012550;28;20302;-83
2022/02/16 08:53:26;;;;;;;1.65;1.17;;;;;;;4.99;66.48;98898.81;4996555;28;20593;-78
2022/02/16 08:55:52;;;;;;;2.20;1.15;;;;;;;5.30;66.14;98892.09;4993580;28;20060;-80
2022/02/16 08:58:20;;;;;;;1.13;0.60;;;;;;;5.48;65.58;98879.97;4993875;28;20473;-79
2022/02/16 09:00:46;;;;;;;1.42;0.80;;;;;;;4.86;67.37;98884.75;5007156;28;20037;-79
2022/02/16 09:03:12;;;;;;;0.98;0.40;;;;;;;5.55;65.38;98889.97;5009170;28;20030;-77
2022/02/16 09:05:38;;;;;;;2.60;0.50;;;;;;;5.39;66.54;98864.00;5022068;28;20040;-77
2022/02/16 09:08:03;;;;;;;1.15;0.50;;;;;;;4.89;67.60;98858.72;4994499;28;20049;-82
2022/02/16 09:10:29;;;;;;;1.30;0.57;;;;;;;5.32;66.73;98862.59;5002089;28;20029;-79
2022/02/16 09:12:55;;;;;;;0.90;0.40;;;;;;;5.66;65.32;98864.34;5000963;28;21647;-75
2022/02/16 09:15:25;;;;;;;1.00;0.52;;;;;;;4.97;67.88;98859.19;4993097;28;20040;-76
2022/02/16 09:17:52;;;;;;;1.00;0.35;;;;;;;5.17;68.06;98853.88;4986712;28;20131;-79
2022/02/16 09:20:18;;;;;;;1.10;0.30;;;;;;;5.57;66.47;98871.72;4987377;28;20069;-77
2022/02/16 09:22:44;;;;;;;1.00;0.45;;;;;;;5.96;65.23;98850.69;4988786;28;20050;-78
2022/02/16 09:25:09;;;;;;;1.00;0.30;;;;;;;5.70;65.67;98866.75;5003088;28;20045;-79
2022/02/16 09:27:36;;;;;;;0.80;0.38;;;;;;;5.24;67.68;98860.41;4987887;28;20045;-79
2022/02/16 09:30:02;;;;;;;1.10;0.30;;;;;;;5.56;66.19;98865.72;4998117;28;20476;-79
2022/02/16 09:32:27;;;;;;;0.80;0.30;;;;;;;5.24;67.26;98875.13;5021429;28;20075;-78
2022/02/16 09:34:54;;;;;;;0.90;0.22;;;;;;;5.82;65.91;98872.16;5003797;28;20049;-78
2022/02/16 09:37:21;;;;;;;1.77;0.30;;;;;;;5.59;66.96;98873.34;5014814;28;20046;-79
2022/02/16 09:39:47;;;;;;;0.73;0.20;;;;;;;5.70;66.99;98877.97;5028430;28;20137;-79
2022/02/16 09:42:13;;;;;;;1.80;0.20;;;;;;;5.04;68.59;98869.16;4990239;28;20056;-78
2022/02/16 09:45:12;;;;;;;1.00;0.40;;;;;;;5.60;68.29;98882.78;4991141;28;20030;-81
2022/02/16 09:47:41;;;;;;;0.30;0.10;;;;;;;6.08;66.39;98878.56;4969715;28;20137;-77
2022/02/16 09:50:14;;;;;;;0.32;0.15;;;;;;;5.88;66.94;98891.72;4997288;28;20703;-84
2022/02/16 09:52:42;;;;;;;0.45;0.10;;;;;;;5.82;67.49;98881.69;4985284;28;20067;-80
2022/02/16 09:55:09;;;;;;;0.60;0.20;;;;;;;5.86;67.19;98862.47;4991211;28;20056;-75
2022/02/16 09:57:35;;;;;;;0.25;0.10;;;;;;;5.90;66.71;98852.75;4983788;28;20064;-79
2022/02/16 10:00:00;;;;;;;0.47;0.10;;;;;;;6.41;65.49;98864.72;5007236;28;20388;-78
2022/02/16 10:02:37;;;;;;;0.57;0.20;;;;;;;5.78;67.62;98856.84;4988579;28;20050;-81
2022/02/16 10:05:03;;;;;;;0.70;0.20;;;;;;;6.11;66.15;98851.63;5003774;28;20041;-80
2022/02/16 10:07:34;;;;;;;0.50;0.20;;;;;;;6.20;66.17;98861.50;5006781;28;20481;-80
2022/02/16 10:10:20;;;;;;;0.70;0.30;;;;;;;5.79;67.19;98866.28;4977284;28;20495;-79
2022/02/16 10:12:51;;;;;;;1.27;0.40;;;;;;;6.02;67.49;98863.31;4987911;28;20316;-81
2022/02/16 10:15:39;;;;;;;1.67;0.32;;;;;;;6.47;65.76;98864.38;5017136;28;20065;-79
2022/02/16 10:18:10;;;;;;;4.47;0.50;;;;;;;6.45;65.67;98866.22;5004404;28;20046;-79
2022/02/16 10:20:37;;;;;;;2.35;0.55;;;;;;;6.61;65.89;98852.41;5007838;28;20037;-80
2022/02/16 10:23:02;;;;;;;1.50;0.73;;;;;;;6.36;66.57;98855.50;5003975;28;20504;-79
2022/02/16 10:25:46;;;;;;;1.58;0.80;;;;;;;6.63;65.33;98843.59;4986781;28;20034;-81
2022/02/16 10:28:41;;;;;;;3.47;0.82;;;;;;;6.62;65.32;98856.66;4936394;28;20120;-80
2022/02/16 10:31:08;;;;;;;3.25;0.85;;;;;;;6.77;65.69;98857.56;5002089;28;20046;-80
2022/02/16 10:33:42;;;;;;;1.73;1.15;;;;;;;6.67;65.91;98846.88;5000851;28;20048;-80
2022/02/16 10:36:09;;;;;;;6.20;1.05;;;;;;;6.74;65.85;98839.56;4990353;28;20045;-82
2022/02/16 10:38:55;;;;;;;11.60;1.83;;;;;;;6.81;65.84;98851.28;5021422;28;20037;-82
2022/02/16 10:41:22;;;;;;;3.30;1.35;;;;;;;6.69;66.00;98852.81;5006526;28;20029;-80
2022/02/16 10:43:50;;;;;;;3.50;1.05;;;;;;;6.79;66.06;98871.31;4986890;28;20053;-79
2022/02/16 10:46:30;;;;;;;3.75;1.17;;;;;;;7.39;63.96;98873.06;5006850;28;20751;-79
2022/02/16 10:49:13;;;;;;;2.97;0.65;;;;;;;7.04;65.27;98896.72;5007219;28;20044;-82
2022/02/16 10:51:41;;;;;;;10.80;1.13;;;;;;;6.83;65.83;98886.63;5001563;28;20121;-76
2022/02/16 10:54:10;;;;;;;2.97;1.20;;;;;;;7.17;65.27;98895.09;5002047;28;20061;-80
2022/02/16 10:56:36;;;;;;;12.40;1.58;;;;;;;6.95;65.59;98881.66;5003080;28;20037;-79
2022/02/16 10:59:01;;;;;;;3.63;1.10;;;;;;;8.07;61.98;98895.88;5001331;28;20041;-78
2022/02/16 11:01:27;;;;;;;15.27;2.03;;;;;;;7.37;63.78;98895.72;5007902;28;20029;-82
2022/02/16 11:03:53;;;;;;;2.47;0.93;;;;;;;7.50;63.39;98870.69;4989334;28;20041;-76
2022/02/16 11:06:22;;;;;;;7.78;1.05;;;;;;;7.59;63.41;98906.56;5003948;28;20624;-79
2022/02/16 11:08:51;;;;;;;1.58;0.73;;;;;;;7.61;63.00;98889.09;5021503;28;20037;-83
2022/02/16 11:11:18;;;;;;;11.23;1.05;;;;;;;7.96;62.03;98888.75;5025508;28;20033;-77
2022/02/16 11:13:44;;;;;;;6.07;0.47;;;;;;;7.72;62.92;98885.88;5021619;28;20064;-75
2022/02/16 11:16:10;;;;;;;5.88;0.82;;;;;;;7.60;63.18;98884.84;5011268;28;20034;-78
2022/02/16 11:18:47;;;;;;;3.25;0.75;;;;;;;8.21;61.32;98888.09;4994217;28;20056;-80
2022/02/16 11:21:23;;;;;;;2.10;0.20;;;;;;;7.51;62.80;98890.53;5002892;28;20512;-81
2022/02/16 11:23:55;;;;;;;4.80;0.63;;;;;;;8.03;61.52;98897.88;5001259;28;20050;-81
2022/02/16 11:26:43;;;;;;;3.40;0.32;;;;;;;8.46;60.38;98887.38;5002628;28;20092;-80
2022/02/16 11:29:29;;;;;;;4.80;0.80;;;;;;;8.48;59.97;98877.72;4989183;28;20080;-78
2022/02/16 11:32:12;;;;;;;3.72;0.47;;;;;;;7.99;60.84;98898.97;4992574;28;20038;-79
2022/02/16 11:35:00;;;;;;;6.53;0.90;;;;;;;8.87;58.47;98912.59;4994921;28;20037;-81
2022/02/16 11:37:38;;;;;;;3.15;0.35;;;;;;;7.91;61.09;98901.19;5005584;28;20080;-81
2022/02/16 11:40:05;;;;;;;6.13;0.65;;;;;;;8.36;59.60;98922.75;4990154;28;20991;-78
2022/02/16 11:42:46;;;;;;;9.55;0.30;;;;;;;8.25;60.02;98931.22;5002602;28;20087;-82